Briefing drone pour Tournon-sur-rhone

Rechercher une autre localisation

Conditions de vol :


Nous sommes le : Dimanche 11 avril 2021
Il est 12:23 UTC (14:24 LT)

Lever de soleil : 04:35 UTC (06:35 LT)
Coucher de soleil : 18:47 UTC (20:47 LT)

Météo

L'essentiel des conditions de vol

VIGILANCE MÉTÉO FRANCE - Ardèche (07)
Pas de vigilances particulieres
CARTES DES FRONTS
METAR de LFLU
LFLU 111200Z AUTO 20019KT 9999 SCT050 OVC060 15/08 Q1012

Date d'émission: 11/04/2021
Heure d'émission: 12:00 UTC
Vent: 200° pour 19 KT (35 km/h)
Visibilité horizontale: > 10 km
Plafond :
- Nuages épars à 5000ft (1524m)
- Couvert à 6000ft (1829m)
Température: 15 °C
Point de rosée: 8 °C
Humidité: 63%
Pression (QNH): 1012 hPa
Prévision 24h pour Valence (10 km)
Vent : 4° pour 9 KT (33 km/h)
Temperature Maxi: 6 °C
Temperature Min: 6 °C
Humidité : 81%
Condition : Légère pluie



Warning: count(): Parameter must be an array or an object that implements Countable in /homepages/6/d509196549/htdocs/droneoxygene/briefing.php on line 743
WEBCAM POUR TOURNON-SUR-RHONE

Réglementation

Voler en sécurité

CARTES AERONAUTIQUE 1/500.000
CARTES VAC (LFLU)
SUP AIP




Chargement des AIP...
NOTAM (TOURNON-SUR-RHONE + Terrain à proximité / FIR )




Chargement des NOTAMS...
CONTACT PREFECTURE 07


Avertissement : Les données mises à disposition sont indicatives. Oxygène Drone ne pourra être tenu responsable de dégâts causés aux biens et aux personnes.